createdAt,value
2018-01-12T00:00:04.901Z,3.40
2018-01-12T00:02:32.471Z,3.50
2018-01-12T00:04:59.960Z,3.50
2018-01-12T00:07:27.581Z,3.40
2018-01-12T00:09:55.741Z,3.40
2018-01-12T00:12:26.958Z,3.50
2018-01-12T00:14:56.962Z,3.50
2018-01-12T00:17:24.819Z,3.50
2018-01-12T00:19:52.639Z,3.50
2018-01-12T00:22:20.539Z,3.40
2018-01-12T00:24:51.004Z,3.40
2018-01-12T00:27:20.047Z,3.50
2018-01-12T00:29:47.770Z,3.40
2018-01-12T00:32:15.737Z,3.40
2018-01-12T00:34:43.368Z,3.40
2018-01-12T00:37:11.781Z,3.30
2018-01-12T00:39:39.537Z,3.30
2018-01-12T00:42:07.041Z,3.30
2018-01-12T00:44:34.543Z,3.30
2018-01-12T00:47:04.028Z,3.30
2018-01-12T00:49:31.743Z,3.20
2018-01-12T00:52:00.130Z,3.30
2018-01-12T00:54:27.766Z,3.30
2018-01-12T00:56:56.057Z,3.40
2018-01-12T00:59:24.872Z,3.40
2018-01-12T01:01:52.451Z,3.40
2018-01-12T01:04:19.996Z,3.40
2018-01-12T01:06:47.675Z,3.30
2018-01-12T01:09:15.510Z,3.20
2018-01-12T01:11:43.798Z,3.10
2018-01-12T01:14:12.181Z,3.10
2018-01-12T01:16:40.340Z,3.10
2018-01-12T01:19:08.056Z,3.10
2018-01-12T01:21:35.571Z,3.20
2018-01-12T01:24:03.105Z,3.20
2018-01-12T01:26:30.915Z,3.30
2018-01-12T01:28:59.247Z,3.20
2018-01-12T01:31:26.743Z,3.20
2018-01-12T01:33:54.672Z,3.30
2018-01-12T01:36:22.277Z,3.30
2018-01-12T01:38:49.967Z,3.20
2018-01-12T01:41:18.241Z,3.20
2018-01-12T01:43:46.530Z,3.20
2018-01-12T01:46:14.809Z,3.30
2018-01-12T01:48:43.096Z,3.30
2018-01-12T01:51:11.387Z,3.40
2018-01-12T01:53:40.681Z,3.40
2018-01-12T01:56:08.964Z,3.30
2018-01-12T01:58:37.399Z,3.30
2018-01-12T02:01:07.704Z,3.30
2018-01-12T02:03:35.263Z,3.40
2018-01-12T02:06:03.158Z,3.40
2018-01-12T02:08:31.637Z,3.40
2018-01-12T02:10:59.156Z,3.40
2018-01-12T02:13:26.705Z,3.30
2018-01-12T02:15:55.039Z,3.10
2018-01-12T02:18:23.525Z,3.10
2018-01-12T02:20:51.070Z,3.10
2018-01-12T02:23:18.643Z,3.10
2018-01-12T02:25:46.164Z,3.10
2018-01-12T02:28:14.920Z,3.10
2018-01-12T02:30:42.541Z,3.20
2018-01-12T02:33:10.869Z,3.20
2018-01-12T02:35:38.637Z,3.20
2018-01-12T02:38:07.302Z,3.20
2018-01-12T02:40:34.853Z,3.20
2018-01-12T02:43:02.362Z,3.20
2018-01-12T02:45:29.876Z,3.20
2018-01-12T02:47:57.454Z,3.10
2018-01-12T02:50:25.030Z,3.10
2018-01-12T02:52:52.842Z,3.00
2018-01-12T02:55:20.969Z,3.00
2018-01-12T02:57:48.552Z,3.00
2018-01-12T03:00:16.121Z,2.90
2018-01-12T03:02:48.642Z,3.00
2018-01-12T03:05:17.183Z,3.00
2018-01-12T03:07:44.703Z,3.00
2018-01-12T03:10:13.707Z,3.10
2018-01-12T03:12:41.250Z,3.10
2018-01-12T03:15:09.528Z,3.10
2018-01-12T03:17:37.034Z,3.10
2018-01-12T03:20:04.745Z,3.10
2018-01-12T03:22:32.254Z,3.00
2018-01-12T03:25:00.510Z,3.00
2018-01-12T03:27:28.802Z,2.80
2018-01-12T03:29:56.320Z,2.80
2018-01-12T03:32:23.854Z,2.80
2018-01-12T03:34:51.591Z,2.80
2018-01-12T03:37:19.864Z,2.80
2018-01-12T03:39:50.134Z,2.80
2018-01-12T03:42:17.693Z,2.80
2018-01-12T03:44:46.072Z,2.70
2018-01-12T03:47:13.571Z,2.70
2018-01-12T03:49:41.104Z,2.70
2018-01-12T03:52:08.628Z,2.70
2018-01-12T03:54:36.217Z,2.80
2018-01-12T03:57:04.704Z,2.90
2018-01-12T03:59:32.265Z,2.90
2018-01-12T04:01:59.866Z,2.90
2018-01-12T04:04:27.536Z,2.90
2018-01-12T04:06:56.055Z,3.00
2018-01-12T04:09:23.781Z,2.90
2018-01-12T04:11:51.303Z,2.80
2018-01-12T04:14:19.589Z,2.70
2018-01-12T04:16:47.886Z,2.70
2018-01-12T04:19:16.626Z,2.70
2018-01-12T04:21:45.513Z,2.70
2018-01-12T04:24:13.098Z,2.70
2018-01-12T04:26:40.686Z,2.60
2018-01-12T04:29:08.965Z,2.60
2018-01-12T04:31:37.237Z,2.70
2018-01-12T04:34:05.511Z,2.60
2018-01-12T04:36:33.008Z,2.60
2018-01-12T04:39:00.540Z,2.60
2018-01-12T04:41:28.094Z,2.60
2018-01-12T04:43:55.628Z,2.50
2018-01-12T04:46:23.938Z,2.50
2018-01-12T04:48:51.801Z,2.50
2018-01-12T04:51:19.331Z,2.60
2018-01-12T04:53:46.975Z,2.60
2018-01-12T04:56:15.211Z,2.60
2018-01-12T04:58:43.139Z,2.60
2018-01-12T05:01:12.058Z,2.60
2018-01-12T05:03:39.640Z,2.60
2018-01-12T05:06:07.170Z,2.60
2018-01-12T05:08:35.511Z,2.60
2018-01-12T05:11:03.797Z,2.60
2018-01-12T05:13:32.312Z,2.50
2018-01-12T05:15:59.867Z,2.50
2018-01-12T05:18:28.170Z,2.50
2018-01-12T05:20:56.073Z,2.50
2018-01-12T05:23:23.636Z,2.40
2018-01-12T05:25:51.398Z,2.40
2018-01-12T05:28:19.736Z,2.40
2018-01-12T05:30:47.765Z,2.40
2018-01-12T05:33:16.760Z,2.40
2018-01-12T05:35:44.584Z,2.30
2018-01-12T05:38:12.629Z,2.40
2018-01-12T05:40:42.536Z,2.40
2018-01-12T05:43:10.906Z,2.30
2018-01-12T05:45:38.444Z,2.30
2018-01-12T05:48:06.194Z,2.30
2018-01-12T05:50:33.817Z,2.30
2018-01-12T05:53:01.318Z,2.30
2018-01-12T05:55:28.883Z,2.30
2018-01-12T05:57:56.453Z,2.30
2018-01-12T06:00:24.832Z,2.40
2018-01-12T06:03:04.173Z,2.40
2018-01-12T06:05:43.662Z,2.40
2018-01-12T06:08:11.209Z,2.40
2018-01-12T06:10:39.045Z,2.30
2018-01-12T06:13:07.610Z,2.40
2018-01-12T06:15:35.169Z,2.40
2018-01-12T06:18:03.462Z,2.40
2018-01-12T06:20:30.994Z,2.40
2018-01-12T06:22:59.196Z,2.50
2018-01-12T06:25:27.510Z,2.40
2018-01-12T06:27:55.165Z,2.40
2018-01-12T06:30:22.675Z,2.40
2018-01-12T06:32:50.190Z,2.50
2018-01-12T06:35:17.688Z,2.50
2018-01-12T06:37:45.248Z,2.50
2018-01-12T06:40:12.887Z,2.60
2018-01-12T06:42:40.381Z,2.60
2018-01-12T06:45:09.132Z,2.60
2018-01-12T06:47:36.825Z,2.70
2018-01-12T06:50:04.352Z,2.70
2018-01-12T06:52:31.874Z,2.60
2018-01-12T06:54:59.881Z,2.50
2018-01-12T06:57:28.157Z,2.50
2018-01-12T06:59:56.560Z,2.50
2018-01-12T07:02:24.093Z,2.50
2018-01-12T07:04:51.656Z,2.50
2018-01-12T07:07:19.180Z,2.50
2018-01-12T07:09:46.736Z,2.50
2018-01-12T07:12:14.273Z,2.50
2018-01-12T07:14:42.848Z,2.60
2018-01-12T07:17:10.372Z,2.50
2018-01-12T07:19:37.880Z,2.60
2018-01-12T07:22:18.162Z,2.60
2018-01-12T07:24:46.427Z,2.60
2018-01-12T07:27:13.962Z,2.70
2018-01-12T07:29:41.828Z,2.70
2018-01-12T07:32:09.366Z,2.70
2018-01-12T07:34:36.927Z,2.60
2018-01-12T07:37:05.913Z,2.70
2018-01-12T07:39:33.432Z,2.70
2018-01-12T07:42:01.734Z,2.70
2018-01-12T07:44:29.381Z,2.70
2018-01-12T07:46:56.995Z,2.70
2018-01-12T07:49:24.561Z,2.70
2018-01-12T07:51:52.853Z,2.70
2018-01-12T07:54:20.806Z,2.70
2018-01-12T07:56:48.653Z,2.70
2018-01-12T07:59:16.986Z,2.70
2018-01-12T08:01:52.780Z,2.70
2018-01-12T08:04:21.096Z,2.60
2018-01-12T08:06:49.032Z,2.60
2018-01-12T08:09:17.360Z,2.50
2018-01-12T08:11:46.263Z,2.50
2018-01-12T08:14:14.064Z,2.50
2018-01-12T08:16:44.116Z,2.50
2018-01-12T08:19:12.246Z,2.50
2018-01-12T08:21:39.725Z,2.50
2018-01-12T08:24:08.065Z,2.60
2018-01-12T08:26:35.721Z,2.60
2018-01-12T08:29:06.726Z,2.60
2018-01-12T08:31:35.142Z,2.70
2018-01-12T08:34:03.556Z,2.60
2018-01-12T08:36:31.079Z,2.70
2018-01-12T08:38:59.132Z,2.60
2018-01-12T08:41:26.735Z,2.60
2018-01-12T08:43:54.544Z,2.50
2018-01-12T08:46:22.485Z,2.60
2018-01-12T08:48:50.151Z,2.60
2018-01-12T08:51:17.704Z,2.60
2018-01-12T08:53:46.214Z,2.70
2018-01-12T08:56:13.803Z,2.70
2018-01-12T08:58:41.328Z,2.80
2018-01-12T09:01:09.350Z,2.70
2018-01-12T09:03:37.426Z,2.80
2018-01-12T09:06:06.009Z,2.80
2018-01-12T09:08:33.841Z,2.80
2018-01-12T09:11:02.461Z,3.00
2018-01-12T09:13:42.844Z,3.00
2018-01-12T09:16:11.517Z,3.00
2018-01-12T09:18:50.893Z,2.90
2018-01-12T09:21:26.469Z,3.00
2018-01-12T09:23:55.536Z,2.90
2018-01-12T09:26:23.199Z,2.90
2018-01-12T09:28:51.081Z,2.90
2018-01-12T09:31:18.620Z,2.80
2018-01-12T09:33:47.790Z,2.90
2018-01-12T09:36:15.384Z,2.90
2018-01-12T09:38:53.590Z,3.10
2018-01-12T09:41:22.892Z,3.10
2018-01-12T09:43:51.152Z,3.00
2018-01-12T09:46:18.736Z,3.00
2018-01-12T09:48:51.705Z,3.10
2018-01-12T09:51:20.010Z,3.20
2018-01-12T09:53:49.076Z,3.20
2018-01-12T09:56:16.601Z,3.20
2018-01-12T09:58:45.893Z,3.30
2018-01-12T10:04:23.991Z,3.20
2018-01-12T10:06:51.522Z,3.20
2018-01-12T10:09:33.923Z,3.20
2018-01-12T10:12:02.254Z,3.20
2018-01-12T10:14:29.775Z,3.20
2018-01-12T10:16:57.316Z,3.10
2018-01-12T10:19:25.134Z,3.10
2018-01-12T10:21:53.341Z,3.10
2018-01-12T10:24:20.874Z,3.10
2018-01-12T10:26:50.216Z,3.00
2018-01-12T10:29:39.925Z,3.00
2018-01-12T10:32:08.292Z,3.00
2018-01-12T10:34:44.692Z,3.00
2018-01-12T10:37:13.626Z,3.00
2018-01-12T10:39:54.533Z,3.20
2018-01-12T10:42:22.056Z,3.10
2018-01-12T10:44:50.692Z,3.10
2018-01-12T10:47:26.049Z,3.10
2018-01-12T10:49:57.277Z,3.00
2018-01-12T10:52:38.523Z,3.00
2018-01-12T10:55:06.008Z,3.00
2018-01-12T10:57:33.505Z,3.00
2018-01-12T11:00:01.802Z,3.00
2018-01-12T11:02:29.695Z,3.00
2018-01-12T11:04:57.204Z,3.00
2018-01-12T11:07:25.464Z,2.90
2018-01-12T11:09:53.001Z,2.90
2018-01-12T11:12:20.547Z,2.90
2018-01-12T11:14:48.077Z,2.90
2018-01-12T11:17:16.399Z,2.80
2018-01-12T11:19:44.232Z,2.80
2018-01-12T11:22:12.571Z,2.80
2018-01-12T11:24:40.106Z,2.80
2018-01-12T11:27:07.617Z,2.90
2018-01-12T11:29:36.649Z,2.80
2018-01-12T11:32:05.253Z,2.80
2018-01-12T11:34:33.538Z,2.80
2018-01-12T11:37:01.074Z,2.80
2018-01-12T11:39:29.361Z,2.80
2018-01-12T11:41:57.474Z,2.80
2018-01-12T11:44:24.996Z,2.80
2018-01-12T11:46:52.517Z,2.90
2018-01-12T11:49:20.037Z,3.00
2018-01-12T11:51:47.572Z,3.00
2018-01-12T11:54:15.891Z,3.10
2018-01-12T11:56:43.420Z,3.00
2018-01-12T11:59:11.827Z,3.00
2018-01-12T12:01:40.107Z,3.20
2018-01-12T12:04:08.686Z,3.30
2018-01-12T12:06:37.014Z,3.10
2018-01-12T12:09:04.522Z,3.10
2018-01-12T12:11:32.841Z,2.90
2018-01-12T12:14:00.356Z,2.90
2018-01-12T12:16:28.735Z,2.70
2018-01-12T12:18:56.230Z,2.70
2018-01-12T12:21:24.518Z,2.70
2018-01-12T12:23:52.781Z,2.80
2018-01-12T12:26:21.041Z,2.90
2018-01-12T12:28:48.615Z,2.80
2018-01-12T12:31:16.215Z,3.00
2018-01-12T12:33:44.290Z,3.00
2018-01-12T12:36:12.525Z,3.10
2018-01-12T12:38:40.838Z,3.00
2018-01-12T12:41:09.161Z,3.00
2018-01-12T12:43:36.739Z,3.00
2018-01-12T12:46:05.850Z,3.00
2018-01-12T12:48:33.360Z,3.10
2018-01-12T12:51:00.929Z,3.10
2018-01-12T12:53:28.484Z,3.10
2018-01-12T12:55:56.088Z,3.10
2018-01-12T12:58:23.837Z,3.10
2018-01-12T13:00:52.214Z,3.10
2018-01-12T13:03:19.881Z,3.00
2018-01-12T13:05:47.398Z,3.10
2018-01-12T13:08:14.938Z,3.10
2018-01-12T13:10:43.320Z,3.00
2018-01-12T13:13:10.857Z,3.00
2018-01-12T13:15:41.057Z,3.10
2018-01-12T13:18:10.424Z,3.10
2018-01-12T13:20:37.936Z,3.10
2018-01-12T13:23:06.168Z,3.20
2018-01-12T13:25:33.708Z,3.10
2018-01-12T13:28:01.233Z,3.10
2018-01-12T13:30:28.956Z,3.00
2018-01-12T13:32:56.773Z,3.00
2018-01-12T13:35:24.518Z,3.00
2018-01-12T13:37:52.052Z,3.00
2018-01-12T13:40:19.545Z,3.10
2018-01-12T13:42:48.060Z,3.10
2018-01-12T13:45:15.609Z,3.00
2018-01-12T13:47:43.925Z,3.00
2018-01-12T13:50:12.310Z,3.00
2018-01-12T13:52:39.854Z,3.00
2018-01-12T13:55:07.759Z,2.90
2018-01-12T13:57:36.037Z,3.00
2018-01-12T14:00:03.565Z,3.00
2018-01-12T14:02:31.829Z,3.10
2018-01-12T14:05:01.108Z,3.00
2018-01-12T14:07:28.973Z,3.00
2018-01-12T14:09:56.464Z,3.10
2018-01-12T14:12:23.991Z,3.10
2018-01-12T14:14:51.552Z,3.10
2018-01-12T14:17:19.107Z,3.10
2018-01-12T14:19:46.773Z,3.20
2018-01-12T14:22:14.294Z,3.20
2018-01-12T14:24:42.585Z,3.10
2018-01-12T14:27:10.985Z,3.10
2018-01-12T14:29:38.644Z,3.10
2018-01-12T14:32:06.651Z,3.10
2018-01-12T14:34:34.170Z,3.00
2018-01-12T14:37:02.459Z,3.00
2018-01-12T14:39:29.964Z,3.00
2018-01-12T14:41:57.468Z,3.00
2018-01-12T14:44:25.745Z,3.10
2018-01-12T14:46:54.018Z,3.10
2018-01-12T14:49:22.956Z,3.10
2018-01-12T14:51:51.394Z,3.10
2018-01-12T14:54:18.992Z,3.00
2018-01-12T14:56:48.416Z,3.00
2018-01-12T14:59:15.954Z,3.00
2018-01-12T15:01:44.229Z,3.00
2018-01-12T15:04:12.764Z,3.10
2018-01-12T15:06:40.315Z,3.00
2018-01-12T15:09:07.957Z,3.10
2018-01-12T15:11:36.646Z,3.20
2018-01-12T15:14:04.955Z,3.20
2018-01-12T15:16:32.481Z,3.20
2018-01-12T15:19:01.178Z,3.30
2018-01-12T15:21:29.577Z,3.20
2018-01-12T15:23:57.088Z,3.20
2018-01-12T15:26:24.697Z,3.20
2018-01-12T15:28:52.291Z,3.20
2018-01-12T15:31:19.929Z,3.10
2018-01-12T15:33:47.741Z,3.10
2018-01-12T15:36:15.359Z,3.10
2018-01-12T15:38:43.635Z,3.00
2018-01-12T15:41:11.925Z,3.10
2018-01-12T15:43:40.314Z,3.10
2018-01-12T15:46:09.849Z,3.10
2018-01-12T15:48:38.059Z,3.10
2018-01-12T15:51:05.548Z,3.00
2018-01-12T15:53:33.845Z,3.00
2018-01-12T15:56:02.104Z,2.90
2018-01-12T15:58:30.440Z,3.00
2018-01-12T16:00:57.948Z,3.00
2018-01-12T16:03:26.389Z,3.10
2018-01-12T16:05:54.139Z,3.10
2018-01-12T16:08:21.666Z,3.10
2018-01-12T16:10:49.274Z,3.10
2018-01-12T16:13:16.818Z,3.10
2018-01-12T16:15:44.355Z,3.10
2018-01-12T16:18:12.635Z,3.00
2018-01-12T16:20:40.920Z,3.00
2018-01-12T16:23:09.769Z,2.90
2018-01-12T16:25:37.457Z,2.90
2018-01-12T16:28:04.996Z,2.90
2018-01-12T16:30:32.582Z,3.00
2018-01-12T16:33:00.080Z,2.90
2018-01-12T16:35:28.379Z,2.90
2018-01-12T16:37:55.933Z,2.90
2018-01-12T16:40:23.526Z,2.90
2018-01-12T16:42:52.809Z,2.90
2018-01-12T16:45:21.083Z,3.00
2018-01-12T16:47:50.235Z,3.00
2018-01-12T16:50:17.769Z,3.00
2018-01-12T16:52:45.277Z,3.00
2018-01-12T16:55:12.912Z,2.90
2018-01-12T16:57:40.502Z,2.80
2018-01-12T17:00:08.104Z,2.80
2018-01-12T17:02:37.536Z,2.90
2018-01-12T17:05:05.210Z,2.90
2018-01-12T17:07:32.702Z,2.90
2018-01-12T17:10:00.214Z,2.90
2018-01-12T17:12:27.779Z,2.90
2018-01-12T17:14:56.342Z,2.90
2018-01-12T17:17:24.628Z,2.90
2018-01-12T17:19:53.059Z,3.00
2018-01-12T17:22:20.589Z,2.90
2018-01-12T17:24:48.138Z,3.10
2018-01-12T17:27:16.505Z,3.10
2018-01-12T17:29:44.036Z,3.10
2018-01-12T17:32:12.166Z,3.10
2018-01-12T17:34:40.446Z,2.90
2018-01-12T17:37:08.717Z,2.90
2018-01-12T17:39:37.034Z,3.00
2018-01-12T17:42:04.528Z,2.90
2018-01-12T17:44:32.404Z,3.00
2018-01-12T17:47:00.101Z,3.00
2018-01-12T17:49:28.517Z,3.00
2018-01-12T17:51:56.541Z,3.00
2018-01-12T17:54:24.220Z,3.00
2018-01-12T17:56:51.764Z,2.90
2018-01-12T17:59:19.496Z,2.80
2018-01-12T18:01:47.253Z,2.80
2018-01-12T18:04:15.569Z,2.80
2018-01-12T18:06:44.166Z,2.80
2018-01-12T18:09:13.016Z,2.80
2018-01-12T18:11:41.850Z,2.80
2018-01-12T18:14:09.422Z,2.90
2018-01-12T18:16:37.463Z,3.20
2018-01-12T18:19:05.822Z,2.90
2018-01-12T18:21:33.696Z,2.90
2018-01-12T18:24:02.751Z,2.70
2018-01-12T18:26:31.449Z,2.70
2018-01-12T18:28:58.981Z,2.70
2018-01-12T18:31:26.506Z,2.70
2018-01-12T18:33:54.820Z,2.70
2018-01-12T18:36:22.460Z,2.80
2018-01-12T18:38:50.763Z,2.80
2018-01-12T18:41:18.269Z,2.80
2018-01-12T18:43:46.660Z,2.80
2018-01-12T18:46:14.154Z,2.80
2018-01-12T18:48:42.468Z,2.70
2018-01-12T18:51:10.389Z,2.70
2018-01-12T18:53:38.745Z,2.80
2018-01-12T18:56:06.389Z,2.80
2018-01-12T18:58:34.050Z,2.80
2018-01-12T19:01:01.581Z,2.80
2018-01-12T19:03:29.879Z,2.80
2018-01-12T19:05:58.423Z,2.80
2018-01-12T19:08:25.929Z,2.80
2018-01-12T19:10:53.506Z,2.90
2018-01-12T19:13:21.471Z,2.80
2018-01-12T19:15:49.173Z,2.70
2018-01-12T19:18:16.698Z,2.70
2018-01-12T19:20:44.291Z,2.70
2018-01-12T19:23:11.827Z,2.60
2018-01-12T19:25:39.368Z,2.50
2018-01-12T19:28:07.662Z,2.60
2018-01-12T19:30:35.367Z,2.60
2018-01-12T19:33:03.720Z,2.60
2018-01-12T19:35:31.284Z,2.50
2018-01-12T19:38:00.409Z,2.50
2018-01-12T19:40:27.937Z,2.60
2018-01-12T19:42:56.210Z,2.60
2018-01-12T19:45:27.036Z,2.50
2018-01-12T19:47:54.629Z,2.50
2018-01-12T19:50:22.928Z,2.40
2018-01-12T19:52:50.858Z,2.40
2018-01-12T19:55:18.379Z,2.50
2018-01-12T19:57:45.911Z,2.50
2018-01-12T20:00:13.431Z,2.40
2018-01-12T20:02:40.988Z,2.40
2018-01-12T20:05:08.497Z,2.40
2018-01-12T20:07:36.901Z,2.50
2018-01-12T20:10:04.487Z,2.50
2018-01-12T20:12:32.108Z,2.50
2018-01-12T20:14:59.670Z,2.50
2018-01-12T20:17:27.386Z,2.50
2018-01-12T20:19:55.003Z,2.50
2018-01-12T20:22:23.380Z,2.50
2018-01-12T20:24:51.759Z,2.40
2018-01-12T20:27:20.087Z,2.40
2018-01-12T20:29:47.728Z,2.40
2018-01-12T20:32:16.078Z,2.40
2018-01-12T20:34:44.672Z,2.40
2018-01-12T20:37:12.288Z,2.50
2018-01-12T20:39:39.816Z,2.40
2018-01-12T20:42:08.224Z,2.40
2018-01-12T20:44:35.729Z,2.30
2018-01-12T20:47:06.285Z,2.30
2018-01-12T20:49:33.815Z,2.40
2018-01-12T20:52:01.451Z,2.30
2018-01-12T20:54:29.015Z,2.30
2018-01-12T20:56:56.557Z,2.20
2018-01-12T20:59:24.127Z,2.30
2018-01-12T21:01:51.726Z,2.40
2018-01-12T21:04:20.805Z,2.50
2018-01-12T21:06:48.326Z,2.40
2018-01-12T21:09:17.242Z,2.40
2018-01-12T21:11:45.505Z,2.50
2018-01-12T21:14:13.052Z,2.50
2018-01-12T21:16:40.582Z,2.60
2018-01-12T21:19:08.131Z,2.60
2018-01-12T21:21:35.835Z,2.50
2018-01-12T21:24:04.210Z,2.40
2018-01-12T21:26:32.540Z,2.40
2018-01-12T21:29:02.076Z,2.50
2018-01-12T21:31:29.758Z,2.40
2018-01-12T21:33:57.539Z,2.30
2018-01-12T21:36:25.460Z,2.30
2018-01-12T21:38:53.770Z,2.40
2018-01-12T21:41:21.262Z,2.40
2018-01-12T21:43:48.790Z,2.30
2018-01-12T21:46:16.765Z,2.30
2018-01-12T21:48:45.231Z,2.40
2018-01-12T21:51:12.995Z,2.40
2018-01-12T21:53:40.679Z,2.40
2018-01-12T21:56:08.962Z,2.30
2018-01-12T21:58:36.501Z,2.30
2018-01-12T22:01:04.380Z,2.30
2018-01-12T22:03:32.670Z,2.40
2018-01-12T22:06:00.965Z,2.40
2018-01-12T22:08:28.568Z,2.40
2018-01-12T22:10:56.204Z,2.40
2018-01-12T22:13:24.056Z,2.50
2018-01-12T22:15:52.331Z,2.40
2018-01-12T22:18:22.189Z,2.30
2018-01-12T22:20:50.875Z,2.30
2018-01-12T22:23:18.375Z,2.20
2018-01-12T22:25:45.887Z,2.30
2018-01-12T22:28:14.208Z,2.30
2018-01-12T22:30:41.730Z,2.20
2018-01-12T22:33:09.271Z,2.10
2018-01-12T22:35:37.978Z,2.10
2018-01-12T22:38:05.492Z,2.10
2018-01-12T22:40:33.821Z,2.10
2018-01-12T22:43:01.370Z,2.20
2018-01-12T22:45:28.903Z,2.20
2018-01-12T22:47:56.403Z,2.20
2018-01-12T22:50:24.020Z,2.00
2018-01-12T22:52:52.121Z,2.10
2018-01-12T22:55:19.654Z,2.10
2018-01-12T22:57:47.147Z,2.10
2018-01-12T23:00:14.770Z,2.10
2018-01-12T23:02:42.324Z,2.10
2018-01-12T23:05:10.153Z,2.10
2018-01-12T23:07:39.023Z,2.10
2018-01-12T23:10:06.628Z,2.00
2018-01-12T23:12:34.929Z,2.10
2018-01-12T23:15:03.322Z,2.10
2018-01-12T23:17:30.882Z,2.10
2018-01-12T23:19:58.428Z,2.00
2018-01-12T23:22:26.828Z,2.10
2018-01-12T23:24:54.347Z,2.10
2018-01-12T23:27:22.509Z,2.20
2018-01-12T23:29:50.092Z,2.10
2018-01-12T23:32:18.461Z,2.10
2018-01-12T23:34:46.141Z,2.10
2018-01-12T23:37:14.388Z,2.20
2018-01-12T23:39:41.925Z,2.10
2018-01-12T23:42:10.629Z,2.00
2018-01-12T23:44:38.302Z,1.90
2018-01-12T23:47:06.188Z,1.90
2018-01-12T23:49:33.756Z,2.00
2018-01-12T23:52:01.657Z,2.00
2018-01-12T23:54:29.183Z,2.00
2018-01-12T23:56:57.233Z,1.90
2018-01-12T23:59:25.519Z,1.90
